Rickmers Seoul — V7EI5 — position and weather

sailwx.info

Track history (hours):
 
Tides and Currents Weather Stations Pressure Air Temp Water Temp Dewpoint Dewpoint Depression Visibility Wind Speed Wind Dir Waves Ship Positions

Rickmers Seoul

Last reported at 2015-Jun-27 18:26 UTC. Time now 2015-Jul-01 01:54 UTC.
Position N 37°30' E 016°15'.

Length 192.9 m; beam 27.8 m; draft 11.2 m.

Type: Ship. MMSI: 538001809.

Date/timePositionNaut miles runAvg speedWind from/ knotsBaromVisibWave heightAir tempDewpointWater temp
2015-Jun-27 18:26N 37°30' E 016°15'1213.0
2015-Jun-27 17:33N 37°36' E 016°03'1312.5
2015-Jun-27 16:31N 37°44' E 015°51'1212.6
2015-Jun-27 15:32N 37°54' E 015°41'1212.7
2015-Jun-27 14:34N 38°05' E 015°35'1413.9
2015-Jun-27 13:33N 38°18' E 015°40'1111.0
2015-Jun-27 12:33N 38°26' E 015°31'1313.2
2015-Jun-27 11:32N 38°36' E 015°19'18212.8
2015-Jun-26 21:22N 40°39' E 012°25'2912.9
2015-Jun-26 19:09N 40°58' E 011°57'812.8
2015-Jun-26 18:33N 41°03' E 011°49'7912.8
2015-Jun-26 12:22N 41°57' E 010°31'2612.4
2015-Jun-26 10:16N 42°14' E 010°05'6312.3
2015-Jun-26 05:11N 43°12' E 009°32'812.2
2015-Jun-26 04:34N 43°19' E 009°29'1211.8
2015-Jun-26 03:34N 43°30' E 009°23'1211.8
2015-Jun-26 02:34N 43°41' E 009°17'1212.3
2015-Jun-26 01:34N 43°53' E 009°11'1212.3
2015-Jun-26 00:33N 44°04' E 009°06'1212.2
2015-Jun-25 23:34N 44°16' E 008°60'10 9.5
2015-Jun-25 22:34N 44°24' E 008°54'0 0.2
2015-Jun-25 21:33N 44°24' E 008°53'0 0.0
2015-Jun-25 20:33N 44°24' E 008°53'0 0.0
2015-Jun-25 19:33N 44°24' E 008°53'0 0.0
2015-Jun-25 18:33N 44°24' E 008°53'0 0.0
2015-Jun-25 17:33N 44°24' E 008°53'0 0.0
2015-Jun-25 16:33N 44°24' E 008°53'0 0.0
2015-Jun-25 15:33N 44°24' E 008°53'0 0.0
2015-Jun-25 14:33N 44°24' E 008°53'0 0.0
2015-Jun-25 13:33N 44°24' E 008°53'0 0.0
2015-Jun-25 12:33N 44°24' E 008°53'0 0.0
2015-Jun-25 11:33N 44°24' E 008°53'0 0.0
2015-Jun-25 10:33N 44°24' E 008°53'0 0.0
2015-Jun-25 09:27N 44°24' E 008°53'0 0.0
2015-Jun-25 08:33N 44°24' E 008°53'0 0.0
2015-Jun-25 07:30N 44°24' E 008°53'0 0.0
2015-Jun-25 06:33N 44°24' E 008°53'2 2.0
2015-Jun-25 05:33N 44°24' E 008°56'7 7.4
2015-Jun-25 04:33N 44°16' E 008°54'1212.3
2015-Jun-25 03:33N 44°08' E 008°41'1212.1
2015-Jun-25 02:33N 43°60' E 008°29'2612.0
2015-Jun-25 00:23N 43°42' E 008°02'1012.1
2015-Jun-24 23:33N 43°35' E 007°52'9912.3
2015-Jun-24 15:31N 42°29' E 006°12'16111.4
2015-Jun-24 01:20N 40°41' E 003°32'1012.3
2015-Jun-24 00:33N 40°34' E 003°23'1312.8
2015-Jun-23 23:33N 40°26' E 003°10'1313.1
2015-Jun-23 22:33N 40°17' E 002°58'1312.9
2015-Jun-23 21:33N 40°08' E 002°45'1212.2
2015-Jun-23 20:33N 39°60' E 002°33'1212.0
2015-Jun-23 19:33N 39°52' E 002°22'612.4
2015-Jun-23 19:05N 39°48' E 002°16'29412.5
2015-Jun-22 19:33N 36°23' W 002°12'1212.2
2015-Jun-22 18:33N 36°20' W 002°27'1312.6
2015-Jun-22 17:33N 36°18' W 002°42'1313.2
2015-Jun-22 16:33N 36°16' W 002°58'1313.2
2015-Jun-22 15:32N 36°14' W 003°15'1313.7
2015-Jun-22 14:33N 36°12' W 003°31'7914.4
2015-Jun-22 09:06N 36°01' W 005°07'815.3
2015-Jun-22 08:33N 35°59' W 005°17'10012.5
2015-Jun-22 00:33N 36°08' W 007°21'1312.6
2015-Jun-21 23:34N 36°11' W 007°36'1312.6
2015-Jun-21 22:34N 36°15' W 007°51'1312.9
2015-Jun-21 21:34N 36°18' W 008°06'1313.1
2015-Jun-21 20:33N 36°21' W 008°22'1313.1
2015-Jun-21 19:34N 36°25' W 008°38'1312.7
2015-Jun-21 18:34N 36°28' W 008°53'1312.7
2015-Jun-21 17:33N 36°32' W 009°08'1211.9
2015-Jun-21 16:33N 36°37' W 009°21'1212.2
2015-Jun-21 15:33N 36°46' W 009°32'1212.4
2015-Jun-21 14:33N 36°58' W 009°36'1312.6
2015-Jun-21 13:33N 37°10' W 009°40'1312.7
2015-Jun-21 12:30N 37°23' W 009°44'1212.7
2015-Jun-21 11:33N 37°35' W 009°47'1212.5
2015-Jun-21 10:34N 37°47' W 009°51'1312.7
2015-Jun-21 09:33N 37°59' W 009°54'1312.8
2015-Jun-21 08:33N 38°12' W 009°58'1212.4
2015-Jun-21 07:33N 38°24' W 010°02'1212.4
2015-Jun-21 06:33N 38°36' W 010°05'1312.7
2015-Jun-21 05:33N 38°49' W 010°07'1312.8
2015-Jun-21 04:33N 39°02' W 010°07'1312.6
2015-Jun-21 03:33N 39°14' W 010°06'1312.7
2015-Jun-21 02:34N 39°27' W 010°06'1312.9
2015-Jun-21 01:33N 39°40' W 010°06'1312.5
2015-Jun-21 00:33N 39°52' W 010°06'1312.9
2015-Jun-20 23:33N 40°05' W 010°07'1313.2
2015-Jun-20 22:33N 40°18' W 010°06'1313.1
2015-Jun-20 21:33N 40°32' W 010°06'1313.0
2015-Jun-20 20:33N 40°45' W 010°07'1312.9
2015-Jun-20 19:33N 40°57' W 010°06'10212.8
2015-Jun-20 11:33N 42°40' W 010°06'6812.5
2015-Jun-20 06:08N 43°46' W 009°45'28912.8
2015-Jun-19 07:33N 48°00' W 006°30'1312.7
2015-Jun-19 06:33N 48°12' W 006°21'3511.7
2015-Jun-19 03:33N 48°43' W 005°57'1211.9
2015-Jun-19 02:33N 48°53' W 005°48'1712.8
2015-Jun-19 01:12N 49°02' W 005°25'914.0
2015-Jun-19 00:33N 49°06' W 005°13'1414.2
2015-Jun-18 23:33N 49°13' W 004°55'1414.0
2015-Jun-18 22:33N 49°21' W 004°36'1313.1
2015-Jun-18 21:33N 49°27' W 004°19'4611.1
2015-Jun-18 17:25N 49°50' W 003°17'1112.4
2015-Jun-18 16:31N 49°56' W 003°03'3514.7
2015-Jun-18 14:10N 50°06' W 002°11'1314.9
2015-Jun-18 13:17N 50°10' W 001°51'1213.3
2015-Jun-18 12:23N 50°13' W 001°33'1011.9
2015-Jun-18 11:32N 50°16' W 001°18'5210.4
2015-Jun-18 06:33N 50°30' W 000°00'1313.3
2015-Jun-18 05:33N 50°34' E 000°20'1313.4
2015-Jun-18 04:33N 50°39' E 000°39'1612.7
2015-Jun-18 03:19N 50°49' E 000°58'911.4
2015-Jun-18 02:29N 50°55' E 001°10'910.1
2015-Jun-18 01:33N 51°01' E 001°21'9 8.9
2015-Jun-18 00:33N 51°06' E 001°33'9 9.4
2015-Jun-17 23:34N 51°13' E 001°44'1111.3
2015-Jun-17 22:34N 51°23' E 001°52'1413.6
2015-Jun-17 21:34N 51°34' E 002°05'  
Track history (hours):
 
Tides and Currents Weather Stations Pressure Air Temp Water Temp Dewpoint Dewpoint Depression Visibility Wind Speed Wind Dir Waves Ship Positions

Rickmers Seoul

Last reported at 2015-Jun-27 18:26 UTC. Time now 2015-Jul-01 01:54 UTC.
Position N 37°30' E 016°15'.

Length 192.9 m; beam 27.8 m; draft 11.2 m.

Type: Ship. MMSI: 538001809.

Date/timePositionNaut miles runAvg speedWind from/ knotsBaromVisibWave heightAir tempDewpointWater temp
2015-Jun-27 18:26N 37°30' E 016°15'1213.0
2015-Jun-27 17:33N 37°36' E 016°03'1312.5
2015-Jun-27 16:31N 37°44' E 015°51'1212.6
2015-Jun-27 15:32N 37°54' E 015°41'1212.7
2015-Jun-27 14:34N 38°05' E 015°35'1413.9
2015-Jun-27 13:33N 38°18' E 015°40'1111.0
2015-Jun-27 12:33N 38°26' E 015°31'1313.2
2015-Jun-27 11:32N 38°36' E 015°19'18212.8
2015-Jun-26 21:22N 40°39' E 012°25'2912.9
2015-Jun-26 19:09N 40°58' E 011°57'812.8
2015-Jun-26 18:33N 41°03' E 011°49'7912.8
2015-Jun-26 12:22N 41°57' E 010°31'2612.4
2015-Jun-26 10:16N 42°14' E 010°05'6312.3
2015-Jun-26 05:11N 43°12' E 009°32'812.2
2015-Jun-26 04:34N 43°19' E 009°29'1211.8
2015-Jun-26 03:34N 43°30' E 009°23'1211.8
2015-Jun-26 02:34N 43°41' E 009°17'1212.3
2015-Jun-26 01:34N 43°53' E 009°11'1212.3
2015-Jun-26 00:33N 44°04' E 009°06'1212.2
2015-Jun-25 23:34N 44°16' E 008°60'10 9.5
2015-Jun-25 22:34N 44°24' E 008°54'0 0.2
2015-Jun-25 21:33N 44°24' E 008°53'0 0.0
2015-Jun-25 20:33N 44°24' E 008°53'0 0.0
2015-Jun-25 19:33N 44°24' E 008°53'0 0.0
2015-Jun-25 18:33N 44°24' E 008°53'0 0.0
2015-Jun-25 17:33N 44°24' E 008°53'0 0.0
2015-Jun-25 16:33N 44°24' E 008°53'0 0.0
2015-Jun-25 15:33N 44°24' E 008°53'0 0.0
2015-Jun-25 14:33N 44°24' E 008°53'0 0.0
2015-Jun-25 13:33N 44°24' E 008°53'0 0.0
2015-Jun-25 12:33N 44°24' E 008°53'0 0.0
2015-Jun-25 11:33N 44°24' E 008°53'0 0.0
2015-Jun-25 10:33N 44°24' E 008°53'0 0.0
2015-Jun-25 09:27N 44°24' E 008°53'0 0.0
2015-Jun-25 08:33N 44°24' E 008°53'0 0.0
2015-Jun-25 07:30N 44°24' E 008°53'0 0.0
2015-Jun-25 06:33N 44°24' E 008°53'2 2.0
2015-Jun-25 05:33N 44°24' E 008°56'7 7.4
2015-Jun-25 04:33N 44°16' E 008°54'1212.3
2015-Jun-25 03:33N 44°08' E 008°41'1212.1
2015-Jun-25 02:33N 43°60' E 008°29'2612.0
2015-Jun-25 00:23N 43°42' E 008°02'1012.1
2015-Jun-24 23:33N 43°35' E 007°52'9912.3
2015-Jun-24 15:31N 42°29' E 006°12'16111.4
2015-Jun-24 01:20N 40°41' E 003°32'1012.3
2015-Jun-24 00:33N 40°34' E 003°23'1312.8
2015-Jun-23 23:33N 40°26' E 003°10'1313.1
2015-Jun-23 22:33N 40°17' E 002°58'1312.9
2015-Jun-23 21:33N 40°08' E 002°45'1212.2
2015-Jun-23 20:33N 39°60' E 002°33'1212.0
2015-Jun-23 19:33N 39°52' E 002°22'612.4
2015-Jun-23 19:05N 39°48' E 002°16'29412.5
2015-Jun-22 19:33N 36°23' W 002°12'1212.2
2015-Jun-22 18:33N 36°20' W 002°27'1312.6
2015-Jun-22 17:33N 36°18' W 002°42'1313.2
2015-Jun-22 16:33N 36°16' W 002°58'1313.2
2015-Jun-22 15:32N 36°14' W 003°15'1313.7
2015-Jun-22 14:33N 36°12' W 003°31'7914.4
2015-Jun-22 09:06N 36°01' W 005°07'815.3
2015-Jun-22 08:33N 35°59' W 005°17'10012.5
2015-Jun-22 00:33N 36°08' W 007°21'1312.6
2015-Jun-21 23:34N 36°11' W 007°36'1312.6
2015-Jun-21 22:34N 36°15' W 007°51'1312.9
2015-Jun-21 21:34N 36°18' W 008°06'1313.1
2015-Jun-21 20:33N 36°21' W 008°22'1313.1
2015-Jun-21 19:34N 36°25' W 008°38'1312.7
2015-Jun-21 18:34N 36°28' W 008°53'1312.7
2015-Jun-21 17:33N 36°32' W 009°08'1211.9
2015-Jun-21 16:33N 36°37' W 009°21'1212.2
2015-Jun-21 15:33N 36°46' W 009°32'1212.4
2015-Jun-21 14:33N 36°58' W 009°36'1312.6
2015-Jun-21 13:33N 37°10' W 009°40'1312.7
2015-Jun-21 12:30N 37°23' W 009°44'1212.7
2015-Jun-21 11:33N 37°35' W 009°47'1212.5
2015-Jun-21 10:34N 37°47' W 009°51'1312.7
2015-Jun-21 09:33N 37°59' W 009°54'1312.8
2015-Jun-21 08:33N 38°12' W 009°58'1212.4
2015-Jun-21 07:33N 38°24' W 010°02'1212.4
2015-Jun-21 06:33N 38°36' W 010°05'1312.7
2015-Jun-21 05:33N 38°49' W 010°07'1312.8
2015-Jun-21 04:33N 39°02' W 010°07'1312.6
2015-Jun-21 03:33N 39°14' W 010°06'1312.7
2015-Jun-21 02:34N 39°27' W 010°06'1312.9
2015-Jun-21 01:33N 39°40' W 010°06'1312.5
2015-Jun-21 00:33N 39°52' W 010°06'1312.9
2015-Jun-20 23:33N 40°05' W 010°07'1313.2
2015-Jun-20 22:33N 40°18' W 010°06'1313.1
2015-Jun-20 21:33N 40°32' W 010°06'1313.0
2015-Jun-20 20:33N 40°45' W 010°07'1312.9
2015-Jun-20 19:33N 40°57' W 010°06'10212.8
2015-Jun-20 11:33N 42°40' W 010°06'6812.5
2015-Jun-20 06:08N 43°46' W 009°45'28912.8
2015-Jun-19 07:33N 48°00' W 006°30'1312.7
2015-Jun-19 06:33N 48°12' W 006°21'3511.7
2015-Jun-19 03:33N 48°43' W 005°57'1211.9
2015-Jun-19 02:33N 48°53' W 005°48'1712.8
2015-Jun-19 01:12N 49°02' W 005°25'914.0
2015-Jun-19 00:33N 49°06' W 005°13'1414.2
2015-Jun-18 23:33N 49°13' W 004°55'1414.0
2015-Jun-18 22:33N 49°21' W 004°36'1313.1
2015-Jun-18 21:33N 49°27' W 004°19'4611.1
2015-Jun-18 17:25N 49°50' W 003°17'1112.4
2015-Jun-18 16:31N 49°56' W 003°03'3514.7
2015-Jun-18 14:10N 50°06' W 002°11'1314.9
2015-Jun-18 13:17N 50°10' W 001°51'1213.3
2015-Jun-18 12:23N 50°13' W 001°33'1011.9
2015-Jun-18 11:32N 50°16' W 001°18'5210.4
2015-Jun-18 06:33N 50°30' W 000°00'1313.3
2015-Jun-18 05:33N 50°34' E 000°20'1313.4
2015-Jun-18 04:33N 50°39' E 000°39'1612.7
2015-Jun-18 03:19N 50°49' E 000°58'911.4
2015-Jun-18 02:29N 50°55' E 001°10'910.1
2015-Jun-18 01:33N 51°01' E 001°21'9 8.9
2015-Jun-18 00:33N 51°06' E 001°33'9 9.4
2015-Jun-17 23:34N 51°13' E 001°44'1111.3
2015-Jun-17 22:34N 51°23' E 001°52'1413.6
2015-Jun-17 21:34N 51°34' E 002°05'  

Dump ship's entire track history